createdAt,value
2023-02-05T00:00:46.534Z,36.90
2023-02-05T00:05:49.506Z,36.60
2023-02-05T00:10:53.300Z,36.60
2023-02-05T00:15:57.440Z,36.50
2023-02-05T00:21:00.250Z,36.40
2023-02-05T00:26:03.357Z,36.30
2023-02-05T00:31:12.379Z,36.90
2023-02-05T00:36:15.412Z,36.80
2023-02-05T00:41:19.074Z,36.30
2023-02-05T00:46:23.631Z,36.20
2023-02-05T00:51:26.755Z,36.20
2023-02-05T00:56:29.561Z,36.40
2023-02-05T01:01:34.064Z,36.20
2023-02-05T01:06:36.959Z,36.50
2023-02-05T01:11:39.803Z,36.00
2023-02-05T01:16:43.999Z,36.00
2023-02-05T01:21:46.857Z,36.30
2023-02-05T01:26:49.724Z,36.60
2023-02-05T01:31:57.384Z,36.70
2023-02-05T01:37:00.325Z,36.60
2023-02-05T01:42:03.225Z,36.40
2023-02-05T01:47:07.628Z,36.30
2023-02-05T01:52:14.476Z,36.30
2023-02-05T01:57:20.650Z,36.30
2023-02-05T02:02:25.192Z,36.30
2023-02-05T02:07:28.115Z,36.20
2023-02-05T02:12:35.936Z,36.30
2023-02-05T02:17:43.175Z,36.00
2023-02-05T02:23:12.741Z,37.30
2023-02-05T02:28:22.088Z,36.80
2023-02-05T02:33:32.894Z,36.80
2023-02-05T02:38:42.024Z,36.60
2023-02-05T02:43:51.450Z,36.30
2023-02-05T02:48:58.196Z,36.30
2023-02-05T02:54:06.068Z,36.20
2023-02-05T02:59:13.421Z,36.00
2023-02-05T03:04:20.103Z,35.80
2023-02-05T03:09:31.084Z,35.60
2023-02-05T03:14:36.484Z,35.50
2023-02-05T03:19:39.412Z,35.40
2023-02-05T03:24:42.387Z,35.50
2023-02-05T03:29:47.054Z,35.50
2023-02-05T03:35:03.051Z,35.40
2023-02-05T03:40:15.925Z,35.50
2023-02-05T03:45:34.815Z,35.50
2023-02-05T03:50:42.202Z,35.40
2023-02-05T03:55:49.733Z,35.30
2023-02-05T04:00:54.278Z,35.10
2023-02-05T04:05:57.192Z,35.20
2023-02-05T04:11:00.006Z,35.20
2023-02-05T04:16:04.252Z,35.20
2023-02-05T04:21:07.217Z,35.10
2023-02-05T04:26:10.034Z,35.10
2023-02-05T04:31:14.858Z,35.10
2023-02-05T04:36:17.896Z,35.00
2023-02-05T04:41:20.950Z,35.00
2023-02-05T04:46:25.214Z,35.00
2023-02-05T04:51:28.126Z,35.10
2023-02-05T04:56:30.971Z,35.20
2023-02-05T05:01:35.425Z,35.20
2023-02-05T05:06:38.619Z,35.10
2023-02-05T05:11:41.884Z,35.10
2023-02-05T05:16:46.070Z,34.80
2023-02-05T05:21:48.929Z,34.80
2023-02-05T05:26:52.423Z,34.80
2023-02-05T05:31:56.657Z,34.80
2023-02-05T05:36:59.502Z,34.80
2023-02-05T05:42:20.127Z,34.90
2023-02-05T05:47:24.428Z,34.80
2023-02-05T05:52:27.366Z,35.00
2023-02-05T05:57:30.287Z,35.00
2023-02-05T06:02:34.603Z,35.10
2023-02-05T06:07:37.846Z,34.90
2023-02-05T06:12:40.895Z,34.90
2023-02-05T06:17:45.141Z,34.90
2023-02-05T06:22:48.324Z,34.90
2023-02-05T06:27:51.182Z,35.00
2023-02-05T06:32:55.481Z,35.10
2023-02-05T06:37:58.433Z,35.00
2023-02-05T06:43:01.808Z,34.80
2023-02-05T06:48:06.342Z,34.70
2023-02-05T06:53:11.107Z,34.60
2023-02-05T06:58:14.620Z,34.60
2023-02-05T07:03:18.812Z,34.40
2023-02-05T07:08:21.646Z,34.40
2023-02-05T07:13:24.686Z,34.50
2023-02-05T07:18:29.193Z,34.50
2023-02-05T07:23:32.764Z,34.50
2023-02-05T07:28:35.865Z,34.50
2023-02-05T07:33:40.040Z,34.50
2023-02-05T07:38:43.834Z,35.60
2023-02-05T07:43:47.096Z,35.00
2023-02-05T07:48:51.340Z,34.70
2023-02-05T07:53:54.420Z,34.40
2023-02-05T07:58:57.375Z,34.50
2023-02-05T08:04:02.068Z,34.50
2023-02-05T08:09:05.152Z,34.50
2023-02-05T08:14:08.149Z,34.60
2023-02-05T08:19:16.249Z,34.70
2023-02-05T08:24:19.484Z,34.90
2023-02-05T08:29:22.741Z,34.90
2023-02-05T08:34:27.715Z,34.90
2023-02-05T08:39:30.722Z,34.80
2023-02-05T08:44:33.767Z,35.00
2023-02-05T08:49:38.374Z,35.10
2023-02-05T08:54:42.180Z,35.40
2023-02-05T08:59:45.006Z,35.70
2023-02-05T09:04:51.428Z,35.80
2023-02-05T09:09:57.315Z,35.90
2023-02-05T09:15:00.514Z,36.50
2023-02-05T09:20:05.319Z,36.90
2023-02-05T09:25:08.630Z,37.20
2023-02-05T09:30:13.212Z,37.10
2023-02-05T09:35:18.045Z,37.40
2023-02-05T09:40:22.742Z,37.60
2023-02-05T09:45:38.699Z,37.60
2023-02-05T09:50:44.466Z,37.80
2023-02-05T09:55:49.569Z,37.90
2023-02-05T10:00:57.293Z,37.80
2023-02-05T10:06:23.485Z,37.80
2023-02-05T10:11:37.823Z,37.70
2023-02-05T10:17:03.172Z,37.50
2023-02-05T10:22:18.319Z,37.20
2023-02-05T10:27:22.602Z,37.10
2023-02-05T10:32:32.370Z,37.10
2023-02-05T10:37:42.779Z,36.70
2023-02-05T10:42:50.506Z,36.40
2023-02-05T10:48:20.367Z,36.30
2023-02-05T10:53:26.226Z,36.00
2023-02-05T10:58:41.552Z,35.60
2023-02-05T11:03:52.488Z,36.00
2023-02-05T11:08:56.807Z,35.50
2023-02-05T11:14:02.908Z,35.60
2023-02-05T11:19:05.898Z,35.80
2023-02-05T11:24:26.597Z,35.70
2023-02-05T11:29:29.482Z,35.70
2023-02-05T11:34:32.408Z,35.70
2023-02-05T11:39:39.753Z,35.70
2023-02-05T11:44:49.564Z,35.70
2023-02-05T11:49:52.895Z,35.80
2023-02-05T11:54:57.460Z,35.80
2023-02-05T12:00:02.147Z,35.90
2023-02-05T12:05:13.231Z,35.90
2023-02-05T12:10:26.272Z,36.00
2023-02-05T12:15:37.404Z,36.30
2023-02-05T12:20:44.634Z,36.40
2023-02-05T12:26:00.334Z,36.20
2023-02-05T12:31:19.527Z,36.00
2023-02-05T12:36:38.641Z,35.70
2023-02-05T12:41:50.021Z,35.50
2023-02-05T12:47:02.642Z,35.10
2023-02-05T12:52:20.389Z,34.70
2023-02-05T12:57:26.589Z,34.30
2023-02-05T13:02:35.871Z,34.10
2023-02-05T13:07:42.285Z,34.30
2023-02-05T13:12:51.283Z,34.60
2023-02-05T13:18:00.030Z,34.70
2023-02-05T13:23:20.536Z,34.90
2023-02-05T13:28:41.596Z,34.70
2023-02-05T13:33:45.090Z,35.00
2023-02-05T13:39:05.787Z,34.70
2023-02-05T13:44:42.849Z,34.50
2023-02-05T13:50:15.520Z,35.20
2023-02-05T13:55:40.349Z,35.10
2023-02-05T14:00:46.211Z,35.20
2023-02-05T14:05:49.145Z,35.70
2023-02-05T14:11:00.128Z,34.80
2023-02-05T14:16:32.709Z,35.40
2023-02-05T14:22:10.812Z,35.20
2023-02-05T14:27:55.295Z,35.20
2023-02-05T14:33:00.097Z,35.20
2023-02-05T14:38:16.966Z,35.30
2023-02-05T14:43:28.279Z,35.40
2023-02-05T14:48:33.777Z,35.80
2023-02-05T14:53:39.618Z,36.00
2023-02-05T14:58:45.158Z,36.10
2023-02-05T15:03:48.272Z,36.40
2023-02-05T15:08:57.861Z,36.40
2023-02-05T15:14:32.485Z,36.40
2023-02-05T15:19:38.871Z,36.10
2023-02-05T15:24:44.944Z,36.00
2023-02-05T15:29:53.052Z,35.90
2023-02-05T15:35:01.883Z,35.70
2023-02-05T15:40:13.146Z,35.60
2023-02-05T15:45:22.717Z,35.60
2023-02-05T15:50:25.801Z,35.40
2023-02-05T15:55:30.503Z,35.20
2023-02-05T16:00:36.930Z,35.20
2023-02-05T16:05:39.838Z,35.10
2023-02-05T16:10:54.217Z,35.10
2023-02-05T16:16:04.812Z,34.90
2023-02-05T16:21:15.152Z,35.20
2023-02-05T16:26:23.445Z,34.90
2023-02-05T16:31:27.807Z,34.90
2023-02-05T16:36:33.301Z,34.90
2023-02-05T16:41:40.310Z,34.80
2023-02-05T16:46:44.119Z,35.00
2023-02-05T16:51:55.235Z,35.10
2023-02-05T16:57:07.603Z,35.20
2023-02-05T17:02:25.744Z,36.10
2023-02-05T17:07:30.043Z,34.90
2023-02-05T17:12:46.150Z,34.70
2023-02-05T17:17:51.706Z,34.50
2023-02-05T17:23:10.149Z,34.20
2023-02-05T17:28:19.402Z,34.30
2023-02-05T17:33:24.458Z,34.30
2023-02-05T17:38:27.299Z,34.30
2023-02-05T17:43:31.472Z,34.20
2023-02-05T17:48:34.261Z,34.20
2023-02-05T17:53:37.115Z,34.20
2023-02-05T17:58:41.676Z,34.30
2023-02-05T18:03:44.950Z,34.30
2023-02-05T18:08:47.851Z,34.90
2023-02-05T18:13:52.081Z,34.60
2023-02-05T18:18:55.080Z,34.40
2023-02-05T18:23:57.944Z,34.20
2023-02-05T18:29:02.085Z,34.30
2023-02-05T18:34:04.909Z,34.40
2023-02-05T18:39:09.689Z,34.70
2023-02-05T18:44:15.936Z,35.10
2023-02-05T18:49:18.877Z,35.20
2023-02-05T18:54:21.755Z,35.40
2023-02-05T18:59:25.978Z,36.20
2023-02-05T19:04:32.851Z,36.10
2023-02-05T19:09:35.860Z,36.00
2023-02-05T19:14:40.451Z,36.20
2023-02-05T19:19:43.516Z,35.70
2023-02-05T19:24:46.560Z,35.60
2023-02-05T19:29:50.935Z,35.50
2023-02-05T19:34:54.903Z,35.60
2023-02-05T19:39:57.813Z,35.60
2023-02-05T19:45:02.117Z,35.50
2023-02-05T19:50:05.150Z,35.50
2023-02-05T19:55:08.349Z,35.40
2023-02-05T20:00:13.922Z,35.40
2023-02-05T20:05:16.841Z,35.20
2023-02-05T20:10:20.055Z,35.60
2023-02-05T20:15:24.358Z,35.10
2023-02-05T20:20:33.570Z,35.30
2023-02-05T20:25:36.877Z,35.00
2023-02-05T20:31:01.462Z,34.80
2023-02-05T20:36:06.365Z,34.70
2023-02-05T20:41:13.564Z,34.60
2023-02-05T20:46:18.054Z,34.80
2023-02-05T20:51:23.070Z,35.50
2023-02-05T20:56:27.461Z,35.10
2023-02-05T21:01:33.427Z,35.10
2023-02-05T21:06:38.688Z,35.00
2023-02-05T21:11:41.839Z,34.80
2023-02-05T21:16:46.097Z,35.40
2023-02-05T21:21:49.989Z,34.80
2023-02-05T21:26:52.967Z,34.80
2023-02-05T21:31:57.356Z,34.60
2023-02-05T21:37:00.258Z,34.30
2023-02-05T21:42:03.186Z,34.40
2023-02-05T21:47:07.367Z,34.30
2023-02-05T21:52:10.204Z,34.80
2023-02-05T21:57:13.117Z,35.20
2023-02-05T22:02:17.430Z,35.00
2023-02-05T22:07:20.618Z,34.90
2023-02-05T22:12:23.617Z,35.00
2023-02-05T22:17:27.905Z,34.90
2023-02-05T22:22:30.769Z,35.00
2023-02-05T22:27:33.655Z,35.10
2023-02-05T22:32:37.877Z,35.10
2023-02-05T22:37:40.724Z,35.20
2023-02-05T22:42:43.571Z,35.10
2023-02-05T22:47:47.796Z,35.10
2023-02-05T22:52:50.784Z,35.00
2023-02-05T22:57:53.655Z,35.00
2023-02-05T23:02:58.875Z,36.00
2023-02-05T23:08:02.017Z,35.30
2023-02-05T23:13:04.815Z,35.70
2023-02-05T23:18:09.023Z,35.40
2023-02-05T23:23:11.840Z,35.40
2023-02-05T23:28:14.720Z,35.40
2023-02-05T23:33:18.915Z,35.20
2023-02-05T23:38:24.966Z,35.30
2023-02-05T23:43:28.100Z,35.20
2023-02-05T23:48:32.298Z,35.40
2023-02-05T23:53:35.171Z,35.20
2023-02-05T23:58:38.044Z,35.10
